עמוד ראשי
METAR-TAF:

METAR-TAF

שדות תעופה :

נמל התעופה הבינלאומי של דמשק

דמשק, סוריה

קו רוחב: 33-25N, קו אורך: 036-31E, גובה: 608מטר

תצפית מזג אוויר נוכחית

הדו"ח נערך לפני 56דקות, בשעה 08:00 UTC
רוח 2קשר מכיוון צפון
טמפרטורת 28 צלסיוס
לחות 25%
לחץ 1013 hPa
ראות 10 קילומטר או יותר
ללא עננים שבסיסם נמוך מ 5000 רגל או קומולונימבוס

METAR: OSDI 270800Z 01002KT CAVOK 28/06 Q1013

זמן: 11:56 (08:56 UTC)

תחזית

הדו"ח נערך לפני 3 שעות ו 56דקות, בשעה 05:00 UTC
תחזית בתוקף מ 27 ב 06 UTC עד 28 ב 12 UTC
רוח 8קשר מכיוון דרום/דרום-מערב
ראות 10 קילומטר או יותר
ללא עננים שבסיסם נמוך מ 5000 רגל או קומולונימבוס
זמנית מ -
27 ב 10 UTC עד 27 ב 20 UTC
רוח 15קשר מכיוון מערב/דרום-מערב עם משבים עד 25קשר
ראות: 8000מטר

TAF: OSDI 270500Z 2706/2812 20008KT CAVOK TEMPO 2710/2720 24015G25KT 8000 NSC

תצפיות ותחזיות מזג אוויר לגבי יותר מ- 4,000 שדות תעופה ברחבי העולם. דוחות METAR ו- TAF.

התחנות הזמינות מסומנות בנקודות צהובות ואדומות על גבי המפה.

העבר את העכבר לנקודה הצבעונית על מנת לראות את שם התחנה.

לאחר מכן, לחץ כדי לראות את תוכן ואת תחזיות מזג האוויר.

כדי לשנות את המפה: לחץ על הכפתורים הירוקים עם הפלוס השחור כדי להתקרב; על הכפתור הירוק עם המקף כדי להתרחק; או בחיצים הירוקים למפות סמוכות.


METAR-TAF: